sensor_id;sensor_type;location;lat;lon;timestamp;P1;durP1;ratioP1;P2;durP2;ratioP2
18072;SDS011;9161;47.348;9.648;2024-02-14T00:02:31;3.60;;;1.77;;
18072;SDS011;9161;47.348;9.648;2024-02-14T00:07:33;5.27;;;1.80;;
18072;SDS011;9161;47.348;9.648;2024-02-14T00:12:36;4.73;;;1.30;;
18072;SDS011;9161;47.348;9.648;2024-02-14T00:17:40;3.23;;;0.93;;
18072;SDS011;9161;47.348;9.648;2024-02-14T00:22:43;1.13;;;0.43;;
18072;SDS011;9161;47.348;9.648;2024-02-14T00:27:45;2.53;;;0.70;;
18072;SDS011;9161;47.348;9.648;2024-02-14T00:32:49;2.97;;;1.20;;
18072;SDS011;9161;47.348;9.648;2024-02-14T00:37:52;4.80;;;1.73;;
18072;SDS011;9161;47.348;9.648;2024-02-14T00:42:54;2.43;;;1.27;;
18072;SDS011;9161;47.348;9.648;2024-02-14T00:47:58;3.67;;;1.40;;
18072;SDS011;9161;47.348;9.648;2024-02-14T00:53:00;1.97;;;1.30;;
18072;SDS011;9161;47.348;9.648;2024-02-14T00:58:03;2.43;;;1.03;;
18072;SDS011;9161;47.348;9.648;2024-02-14T01:03:07;5.57;;;1.20;;
18072;SDS011;9161;47.348;9.648;2024-02-14T01:08:13;5.47;;;1.03;;
18072;SDS011;9161;47.348;9.648;2024-02-14T01:13:15;3.10;;;1.33;;
18072;SDS011;9161;47.348;9.648;2024-02-14T01:18:19;4.70;;;1.20;;
18072;SDS011;9161;47.348;9.648;2024-02-14T01:23:21;3.43;;;1.20;;
18072;SDS011;9161;47.348;9.648;2024-02-14T01:28:23;1.53;;;0.77;;
18072;SDS011;9161;47.348;9.648;2024-02-14T01:33:27;3.03;;;1.37;;
18072;SDS011;9161;47.348;9.648;2024-02-14T01:38:31;4.17;;;1.13;;
18072;SDS011;9161;47.348;9.648;2024-02-14T01:43:36;3.33;;;1.23;;
18072;SDS011;9161;47.348;9.648;2024-02-14T01:48:40;2.10;;;1.00;;
18072;SDS011;9161;47.348;9.648;2024-02-14T01:53:43;2.07;;;0.87;;
18072;SDS011;9161;47.348;9.648;2024-02-14T01:58:46;2.93;;;0.80;;
18072;SDS011;9161;47.348;9.648;2024-02-14T02:03:50;1.20;;;0.63;;
18072;SDS011;9161;47.348;9.648;2024-02-14T02:08:52;2.20;;;0.80;;
18072;SDS011;9161;47.348;9.648;2024-02-14T02:13:55;2.23;;;1.00;;
18072;SDS011;9161;47.348;9.648;2024-02-14T02:18:59;1.57;;;0.60;;
18072;SDS011;9161;47.348;9.648;2024-02-14T02:24:02;1.63;;;0.90;;
18072;SDS011;9161;47.348;9.648;2024-02-14T02:29:05;2.43;;;0.90;;
18072;SDS011;9161;47.348;9.648;2024-02-14T02:34:07;2.67;;;0.70;;
18072;SDS011;9161;47.348;9.648;2024-02-14T02:39:13;3.83;;;0.80;;
18072;SDS011;9161;47.348;9.648;2024-02-14T02:44:16;2.10;;;0.50;;
18072;SDS011;9161;47.348;9.648;2024-02-14T02:49:17;1.90;;;0.77;;
18072;SDS011;9161;47.348;9.648;2024-02-14T02:54:21;0.53;;;0.40;;
18072;SDS011;9161;47.348;9.648;2024-02-14T02:59:24;2.97;;;0.60;;
18072;SDS011;9161;47.348;9.648;2024-02-14T03:04:26;1.40;;;0.50;;
18072;SDS011;9161;47.348;9.648;2024-02-14T03:09:49;1.03;;;0.67;;
18072;SDS011;9161;47.348;9.648;2024-02-14T03:14:52;0.97;;;0.50;;
18072;SDS011;9161;47.348;9.648;2024-02-14T03:19:54;1.67;;;0.70;;
18072;SDS011;9161;47.348;9.648;2024-02-14T03:24:58;1.93;;;0.70;;
18072;SDS011;9161;47.348;9.648;2024-02-14T03:30:00;0.30;;;0.20;;
18072;SDS011;9161;47.348;9.648;2024-02-14T03:35:04;1.13;;;0.60;;
18072;SDS011;9161;47.348;9.648;2024-02-14T03:40:08;1.40;;;0.60;;
18072;SDS011;9161;47.348;9.648;2024-02-14T03:45:12;0.30;;;0.10;;
18072;SDS011;9161;47.348;9.648;2024-02-14T03:50:14;0.77;;;0.30;;
18072;SDS011;9161;47.348;9.648;2024-02-14T03:55:17;0.27;;;0.20;;
18072;SDS011;9161;47.348;9.648;2024-02-14T04:00:20;0.33;;;0.10;;
18072;SDS011;9161;47.348;9.648;2024-02-14T04:05:22;0.60;;;0.20;;
18072;SDS011;9161;47.348;9.648;2024-02-14T04:10:26;0.23;;;0.10;;
18072;SDS011;9161;47.348;9.648;2024-02-14T04:15:27;0.10;;;0.10;;
18072;SDS011;9161;47.348;9.648;2024-02-14T04:20:30;0.67;;;0.40;;
18072;SDS011;9161;47.348;9.648;2024-02-14T04:25:34;0.80;;;0.30;;
18072;SDS011;9161;47.348;9.648;2024-02-14T04:30:36;0.33;;;0.20;;
18072;SDS011;9161;47.348;9.648;2024-02-14T04:35:38;0.70;;;0.20;;
18072;SDS011;9161;47.348;9.648;2024-02-14T04:40:42;0.97;;;0.70;;
18072;SDS011;9161;47.348;9.648;2024-02-14T04:45:44;1.73;;;0.40;;
18072;SDS011;9161;47.348;9.648;2024-02-14T04:50:46;0.83;;;0.40;;
18072;SDS011;9161;47.348;9.648;2024-02-14T04:55:51;0.73;;;0.53;;
18072;SDS011;9161;47.348;9.648;2024-02-14T05:00:53;2.63;;;0.57;;
18072;SDS011;9161;47.348;9.648;2024-02-14T05:05:56;2.77;;;0.80;;
18072;SDS011;9161;47.348;9.648;2024-02-14T05:11:04;2.87;;;0.90;;
18072;SDS011;9161;47.348;9.648;2024-02-14T05:16:07;3.00;;;0.90;;
18072;SDS011;9161;47.348;9.648;2024-02-14T05:21:10;3.90;;;1.27;;
18072;SDS011;9161;47.348;9.648;2024-02-14T05:26:14;2.00;;;0.87;;
18072;SDS011;9161;47.348;9.648;2024-02-14T05:31:16;1.17;;;0.63;;
18072;SDS011;9161;47.348;9.648;2024-02-14T05:36:18;3.43;;;0.37;;
18072;SDS011;9161;47.348;9.648;2024-02-14T05:41:22;4.40;;;1.67;;
18072;SDS011;9161;47.348;9.648;2024-02-14T05:46:25;2.30;;;0.87;;
18072;SDS011;9161;47.348;9.648;2024-02-14T05:51:28;1.47;;;0.70;;
18072;SDS011;9161;47.348;9.648;2024-02-14T05:56:31;0.87;;;0.70;;
18072;SDS011;9161;47.348;9.648;2024-02-14T06:01:33;2.57;;;0.40;;
18072;SDS011;9161;47.348;9.648;2024-02-14T06:06:35;0.53;;;0.20;;
18072;SDS011;9161;47.348;9.648;2024-02-14T06:11:39;0.20;;;0.20;;
18072;SDS011;9161;47.348;9.648;2024-02-14T06:16:42;2.20;;;0.40;;
18072;SDS011;9161;47.348;9.648;2024-02-14T06:21:44;1.43;;;0.40;;
18072;SDS011;9161;47.348;9.648;2024-02-14T06:26:47;1.33;;;0.40;;
18072;SDS011;9161;47.348;9.648;2024-02-14T06:31:49;0.83;;;0.40;;
18072;SDS011;9161;47.348;9.648;2024-02-14T06:36:51;1.77;;;0.40;;
18072;SDS011;9161;47.348;9.648;2024-02-14T06:41:55;0.50;;;0.37;;
18072;SDS011;9161;47.348;9.648;2024-02-14T06:46:57;0.30;;;0.30;;
18072;SDS011;9161;47.348;9.648;2024-02-14T06:51:59;1.37;;;0.50;;
18072;SDS011;9161;47.348;9.648;2024-02-14T06:57:03;1.30;;;0.40;;
18072;SDS011;9161;47.348;9.648;2024-02-14T07:02:06;0.60;;;0.30;;
18072;SDS011;9161;47.348;9.648;2024-02-14T07:07:13;1.60;;;0.73;;
18072;SDS011;9161;47.348;9.648;2024-02-14T07:12:17;2.57;;;0.63;;
18072;SDS011;9161;47.348;9.648;2024-02-14T07:17:19;2.43;;;0.60;;
18072;SDS011;9161;47.348;9.648;2024-02-14T07:22:21;4.20;;;1.73;;
18072;SDS011;9161;47.348;9.648;2024-02-14T07:27:25;3.23;;;1.93;;
18072;SDS011;9161;47.348;9.648;2024-02-14T07:32:27;7.03;;;1.77;;
18072;SDS011;9161;47.348;9.648;2024-02-14T07:37:29;5.17;;;1.93;;
18072;SDS011;9161;47.348;9.648;2024-02-14T07:42:33;4.27;;;1.70;;
18072;SDS011;9161;47.348;9.648;2024-02-14T07:47:35;7.07;;;1.90;;
18072;SDS011;9161;47.348;9.648;2024-02-14T07:52:41;1.10;;;0.60;;
18072;SDS011;9161;47.348;9.648;2024-02-14T07:57:45;1.67;;;0.77;;
18072;SDS011;9161;47.348;9.648;2024-02-14T08:02:47;0.40;;;0.30;;
18072;SDS011;9161;47.348;9.648;2024-02-14T08:07:50;1.70;;;0.30;;
18072;SDS011;9161;47.348;9.648;2024-02-14T08:12:53;0.30;;;0.30;;
18072;SDS011;9161;47.348;9.648;2024-02-14T08:17:56;4.17;;;0.30;;
18072;SDS011;9161;47.348;9.648;2024-02-14T08:23:05;0.30;;;0.20;;
18072;SDS011;9161;47.348;9.648;2024-02-14T08:28:08;0.80;;;0.40;;
18072;SDS011;9161;47.348;9.648;2024-02-14T08:33:11;1.17;;;0.40;;
18072;SDS011;9161;47.348;9.648;2024-02-14T08:38:13;1.90;;;0.47;;
18072;SDS011;9161;47.348;9.648;2024-02-14T08:43:17;0.50;;;0.47;;
18072;SDS011;9161;47.348;9.648;2024-02-14T08:48:19;1.17;;;0.30;;
18072;SDS011;9161;47.348;9.648;2024-02-14T08:53:22;1.10;;;0.40;;
18072;SDS011;9161;47.348;9.648;2024-02-14T08:58:28;1.70;;;0.63;;
18072;SDS011;9161;47.348;9.648;2024-02-14T09:03:30;0.97;;;0.47;;
18072;SDS011;9161;47.348;9.648;2024-02-14T09:08:32;1.80;;;0.73;;
18072;SDS011;9161;47.348;9.648;2024-02-14T09:13:36;1.63;;;0.80;;
18072;SDS011;9161;47.348;9.648;2024-02-14T09:18:39;1.90;;;0.67;;
18072;SDS011;9161;47.348;9.648;2024-02-14T09:23:42;2.17;;;0.60;;
18072;SDS011;9161;47.348;9.648;2024-02-14T09:28:46;0.83;;;0.40;;
18072;SDS011;9161;47.348;9.648;2024-02-14T09:33:48;0.53;;;0.40;;
18072;SDS011;9161;47.348;9.648;2024-02-14T09:38:51;1.00;;;0.40;;
18072;SDS011;9161;47.348;9.648;2024-02-14T09:43:55;0.70;;;0.40;;
18072;SDS011;9161;47.348;9.648;2024-02-14T09:48:58;0.67;;;0.40;;
18072;SDS011;9161;47.348;9.648;2024-02-14T09:54:01;0.93;;;0.40;;
18072;SDS011;9161;47.348;9.648;2024-02-14T09:59:06;0.20;;;0.10;;
18072;SDS011;9161;47.348;9.648;2024-02-14T10:04:10;1.63;;;0.63;;
18072;SDS011;9161;47.348;9.648;2024-02-14T10:09:12;2.40;;;0.80;;
18072;SDS011;9161;47.348;9.648;2024-02-14T10:14:16;2.40;;;1.00;;
18072;SDS011;9161;47.348;9.648;2024-02-14T10:19:18;6.40;;;1.07;;
18072;SDS011;9161;47.348;9.648;2024-02-14T10:24:20;1.10;;;0.43;;
18072;SDS011;9161;47.348;9.648;2024-02-14T10:29:24;1.37;;;0.40;;
18072;SDS011;9161;47.348;9.648;2024-02-14T10:34:26;1.20;;;0.43;;
18072;SDS011;9161;47.348;9.648;2024-02-14T10:39:31;0.90;;;0.40;;
18072;SDS011;9161;47.348;9.648;2024-02-14T10:44:36;1.53;;;0.60;;
18072;SDS011;9161;47.348;9.648;2024-02-14T10:49:39;3.63;;;1.33;;
18072;SDS011;9161;47.348;9.648;2024-02-14T10:54:46;1.00;;;0.40;;
18072;SDS011;9161;47.348;9.648;2024-02-14T10:59:58;4.80;;;1.17;;
18072;SDS011;9161;47.348;9.648;2024-02-14T11:05:05;2.53;;;1.03;;
18072;SDS011;9161;47.348;9.648;2024-02-14T11:10:15;5.60;;;0.93;;
18072;SDS011;9161;47.348;9.648;2024-02-14T11:15:20;1.87;;;0.63;;
18072;SDS011;9161;47.348;9.648;2024-02-14T11:20:30;3.20;;;0.63;;
18072;SDS011;9161;47.348;9.648;2024-02-14T11:25:35;1.58;;;0.63;;
18072;SDS011;9161;47.348;9.648;2024-02-14T11:30:39;1.17;;;0.67;;
18072;SDS011;9161;47.348;9.648;2024-02-14T11:35:42;1.37;;;0.50;;
18072;SDS011;9161;47.348;9.648;2024-02-14T11:40:45;2.17;;;0.70;;
18072;SDS011;9161;47.348;9.648;2024-02-14T11:45:49;2.70;;;0.57;;
18072;SDS011;9161;47.348;9.648;2024-02-14T11:50:53;5.00;;;1.60;;
18072;SDS011;9161;47.348;9.648;2024-02-14T11:55:56;6.70;;;1.35;;
18072;SDS011;9161;47.348;9.648;2024-02-14T12:00:59;1.40;;;0.93;;
18072;SDS011;9161;47.348;9.648;2024-02-14T12:06:05;3.63;;;0.90;;
18072;SDS011;9161;47.348;9.648;2024-02-14T12:11:08;3.17;;;1.45;;
18072;SDS011;9161;47.348;9.648;2024-02-14T12:16:12;2.80;;;0.90;;
18072;SDS011;9161;47.348;9.648;2024-02-14T12:21:16;0.85;;;0.63;;
18072;SDS011;9161;47.348;9.648;2024-02-14T12:26:18;1.02;;;0.68;;
18072;SDS011;9161;47.348;9.648;2024-02-14T12:31:24;1.00;;;0.60;;
18072;SDS011;9161;47.348;9.648;2024-02-14T12:36:27;4.87;;;0.97;;
18072;SDS011;9161;47.348;9.648;2024-02-14T12:41:29;1.67;;;0.70;;
18072;SDS011;9161;47.348;9.648;2024-02-14T12:46:33;1.33;;;0.70;;
18072;SDS011;9161;47.348;9.648;2024-02-14T12:51:38;2.57;;;0.63;;
18072;SDS011;9161;47.348;9.648;2024-02-14T12:56:41;2.93;;;0.90;;
18072;SDS011;9161;47.348;9.648;2024-02-14T13:01:44;3.40;;;1.00;;
18072;SDS011;9161;47.348;9.648;2024-02-14T13:06:48;2.77;;;0.93;;
18072;SDS011;9161;47.348;9.648;2024-02-14T13:11:51;5.73;;;1.73;;
18072;SDS011;9161;47.348;9.648;2024-02-14T13:16:55;2.07;;;0.93;;
18072;SDS011;9161;47.348;9.648;2024-02-14T13:21:58;2.37;;;0.80;;
18072;SDS011;9161;47.348;9.648;2024-02-14T13:27:00;2.97;;;1.10;;
18072;SDS011;9161;47.348;9.648;2024-02-14T13:32:04;1.03;;;0.60;;
18072;SDS011;9161;47.348;9.648;2024-02-14T13:37:07;1.97;;;0.57;;
18072;SDS011;9161;47.348;9.648;2024-02-14T13:42:09;2.23;;;0.80;;
18072;SDS011;9161;47.348;9.648;2024-02-14T13:47:12;1.60;;;0.90;;
18072;SDS011;9161;47.348;9.648;2024-02-14T13:52:16;1.13;;;0.60;;
18072;SDS011;9161;47.348;9.648;2024-02-14T13:57:18;3.03;;;1.08;;
18072;SDS011;9161;47.348;9.648;2024-02-14T14:02:21;2.13;;;1.02;;
18072;SDS011;9161;47.348;9.648;2024-02-14T14:07:24;2.17;;;0.82;;
18072;SDS011;9161;47.348;9.648;2024-02-14T14:12:26;1.97;;;0.67;;
18072;SDS011;9161;47.348;9.648;2024-02-14T14:17:29;1.17;;;0.70;;
18072;SDS011;9161;47.348;9.648;2024-02-14T14:22:31;3.65;;;0.82;;
18072;SDS011;9161;47.348;9.648;2024-02-14T14:27:33;3.75;;;0.95;;
18072;SDS011;9161;47.348;9.648;2024-02-14T14:32:37;3.67;;;0.77;;
18072;SDS011;9161;47.348;9.648;2024-02-14T14:37:41;2.25;;;0.95;;
18072;SDS011;9161;47.348;9.648;2024-02-14T14:42:42;2.95;;;0.80;;
18072;SDS011;9161;47.348;9.648;2024-02-14T14:47:46;4.63;;;1.50;;
18072;SDS011;9161;47.348;9.648;2024-02-14T14:52:48;2.73;;;1.07;;
18072;SDS011;9161;47.348;9.648;2024-02-14T14:57:50;2.67;;;1.27;;
18072;SDS011;9161;47.348;9.648;2024-02-14T15:02:53;2.33;;;1.10;;
18072;SDS011;9161;47.348;9.648;2024-02-14T15:07:56;2.73;;;0.90;;
18072;SDS011;9161;47.348;9.648;2024-02-14T15:12:58;2.60;;;0.80;;
18072;SDS011;9161;47.348;9.648;2024-02-14T15:18:01;3.07;;;0.63;;
18072;SDS011;9161;47.348;9.648;2024-02-14T15:23:03;3.30;;;0.90;;
18072;SDS011;9161;47.348;9.648;2024-02-14T15:28:08;3.23;;;0.77;;
18072;SDS011;9161;47.348;9.648;2024-02-14T15:33:15;3.93;;;0.70;;
18072;SDS011;9161;47.348;9.648;2024-02-14T15:38:23;0.70;;;0.50;;
18072;SDS011;9161;47.348;9.648;2024-02-14T15:43:26;1.13;;;0.60;;
18072;SDS011;9161;47.348;9.648;2024-02-14T15:48:30;2.83;;;0.80;;
18072;SDS011;9161;47.348;9.648;2024-02-14T15:53:33;1.93;;;0.60;;
18072;SDS011;9161;47.348;9.648;2024-02-14T15:58:38;2.07;;;0.93;;
18072;SDS011;9161;47.348;9.648;2024-02-14T16:03:42;2.57;;;0.90;;
18072;SDS011;9161;47.348;9.648;2024-02-14T16:08:44;3.10;;;1.40;;
18072;SDS011;9161;47.348;9.648;2024-02-14T16:13:46;1.63;;;0.77;;
18072;SDS011;9161;47.348;9.648;2024-02-14T16:18:50;3.83;;;0.87;;
18072;SDS011;9161;47.348;9.648;2024-02-14T16:23:53;3.73;;;0.77;;
18072;SDS011;9161;47.348;9.648;2024-02-14T16:28:56;3.37;;;1.80;;
18072;SDS011;9161;47.348;9.648;2024-02-14T16:33:59;3.47;;;1.43;;
18072;SDS011;9161;47.348;9.648;2024-02-14T16:39:02;3.17;;;1.17;;
18072;SDS011;9161;47.348;9.648;2024-02-14T16:44:05;7.70;;;1.63;;
18072;SDS011;9161;47.348;9.648;2024-02-14T16:49:09;4.47;;;1.87;;
18072;SDS011;9161;47.348;9.648;2024-02-14T16:54:12;8.20;;;1.87;;
18072;SDS011;9161;47.348;9.648;2024-02-14T16:59:15;3.67;;;2.00;;
18072;SDS011;9161;47.348;9.648;2024-02-14T17:04:18;4.57;;;1.90;;
18072;SDS011;9161;47.348;9.648;2024-02-14T17:09:22;4.30;;;1.90;;
18072;SDS011;9161;47.348;9.648;2024-02-14T17:14:25;5.73;;;1.77;;
18072;SDS011;9161;47.348;9.648;2024-02-14T17:19:29;9.97;;;2.67;;
18072;SDS011;9161;47.348;9.648;2024-02-14T17:24:31;5.00;;;3.20;;
18072;SDS011;9161;47.348;9.648;2024-02-14T17:29:33;7.63;;;2.23;;
18072;SDS011;9161;47.348;9.648;2024-02-14T17:34:37;10.23;;;2.70;;
18072;SDS011;9161;47.348;9.648;2024-02-14T17:39:40;11.27;;;2.57;;
18072;SDS011;9161;47.348;9.648;2024-02-14T17:44:42;5.57;;;2.00;;
18072;SDS011;9161;47.348;9.648;2024-02-14T17:49:46;6.67;;;2.60;;
18072;SDS011;9161;47.348;9.648;2024-02-14T17:54:48;5.80;;;2.43;;
18072;SDS011;9161;47.348;9.648;2024-02-14T17:59:50;5.97;;;2.50;;
18072;SDS011;9161;47.348;9.648;2024-02-14T18:04:54;10.10;;;3.53;;
18072;SDS011;9161;47.348;9.648;2024-02-14T18:09:56;6.30;;;2.60;;
18072;SDS011;9161;47.348;9.648;2024-02-14T18:14:58;5.90;;;2.77;;
18072;SDS011;9161;47.348;9.648;2024-02-14T18:20:02;7.90;;;3.03;;
18072;SDS011;9161;47.348;9.648;2024-02-14T18:25:05;6.33;;;2.57;;
18072;SDS011;9161;47.348;9.648;2024-02-14T18:30:08;5.53;;;2.93;;
18072;SDS011;9161;47.348;9.648;2024-02-14T18:35:14;7.27;;;3.17;;
18072;SDS011;9161;47.348;9.648;2024-02-14T18:40:16;15.43;;;5.50;;
18072;SDS011;9161;47.348;9.648;2024-02-14T18:45:18;15.23;;;6.63;;
18072;SDS011;9161;47.348;9.648;2024-02-14T18:50:22;17.43;;;6.43;;
18072;SDS011;9161;47.348;9.648;2024-02-14T18:55:25;13.73;;;5.87;;
18072;SDS011;9161;47.348;9.648;2024-02-14T19:00:28;10.40;;;4.17;;
18072;SDS011;9161;47.348;9.648;2024-02-14T19:05:32;17.97;;;4.77;;
18072;SDS011;9161;47.348;9.648;2024-02-14T19:44:04;7.67;;;3.00;;
18072;SDS011;9161;47.348;9.648;2024-02-14T19:49:06;10.73;;;2.67;;
18072;SDS011;9161;47.348;9.648;2024-02-14T20:00:32;4.60;;;2.70;;
18072;SDS011;9161;47.348;9.648;2024-02-14T20:05:35;4.33;;;2.00;;
18072;SDS011;9161;47.348;9.648;2024-02-14T20:10:39;5.13;;;2.27;;
18072;SDS011;9161;47.348;9.648;2024-02-14T20:15:47;4.63;;;2.13;;
18072;SDS011;9161;47.348;9.648;2024-02-14T20:20:51;6.50;;;3.20;;
18072;SDS011;9161;47.348;9.648;2024-02-14T20:25:55;7.53;;;2.97;;
18072;SDS011;9161;47.348;9.648;2024-02-14T20:30:59;13.83;;;4.10;;
18072;SDS011;9161;47.348;9.648;2024-02-14T20:36:03;14.97;;;4.53;;
18072;SDS011;9161;47.348;9.648;2024-02-14T20:41:08;8.80;;;3.27;;
18072;SDS011;9161;47.348;9.648;2024-02-14T20:46:13;8.90;;;4.00;;
18072;SDS011;9161;47.348;9.648;2024-02-14T20:51:16;15.77;;;4.77;;
18072;SDS011;9161;47.348;9.648;2024-02-14T20:56:18;10.20;;;4.33;;
18072;SDS011;9161;47.348;9.648;2024-02-14T21:01:22;18.93;;;5.37;;
18072;SDS011;9161;47.348;9.648;2024-02-14T21:06:24;22.20;;;6.50;;
18072;SDS011;9161;47.348;9.648;2024-02-14T21:11:26;11.27;;;2.80;;
18072;SDS011;9161;47.348;9.648;2024-02-14T21:16:30;9.87;;;2.90;;
18072;SDS011;9161;47.348;9.648;2024-02-14T21:21:32;6.00;;;2.10;;
18072;SDS011;9161;47.348;9.648;2024-02-14T21:26:36;4.43;;;1.67;;
18072;SDS011;9161;47.348;9.648;2024-02-14T21:31:40;3.27;;;1.60;;
18072;SDS011;9161;47.348;9.648;2024-02-14T21:36:42;6.83;;;1.90;;
18072;SDS011;9161;47.348;9.648;2024-02-14T21:41:46;3.43;;;1.70;;
18072;SDS011;9161;47.348;9.648;2024-02-14T21:46:50;3.20;;;1.50;;
18072;SDS011;9161;47.348;9.648;2024-02-14T21:51:53;4.23;;;2.43;;
18072;SDS011;9161;47.348;9.648;2024-02-14T21:56:57;6.97;;;2.97;;
18072;SDS011;9161;47.348;9.648;2024-02-14T22:02:02;7.90;;;3.63;;
18072;SDS011;9161;47.348;9.648;2024-02-14T22:07:05;10.03;;;3.47;;
18072;SDS011;9161;47.348;9.648;2024-02-14T22:12:09;9.50;;;3.80;;
18072;SDS011;9161;47.348;9.648;2024-02-14T22:17:13;13.10;;;4.23;;
18072;SDS011;9161;47.348;9.648;2024-02-14T22:22:17;11.07;;;5.10;;
18072;SDS011;9161;47.348;9.648;2024-02-14T22:27:20;10.03;;;4.00;;
18072;SDS011;9161;47.348;9.648;2024-02-14T22:32:24;9.80;;;4.47;;
18072;SDS011;9161;47.348;9.648;2024-02-14T22:37:26;12.53;;;4.17;;
18072;SDS011;9161;47.348;9.648;2024-02-14T22:42:28;10.97;;;4.20;;
18072;SDS011;9161;47.348;9.648;2024-02-14T22:47:32;29.80;;;9.73;;
18072;SDS011;9161;47.348;9.648;2024-02-14T22:52:35;18.53;;;7.60;;
18072;SDS011;9161;47.348;9.648;2024-02-14T22:57:37;10.60;;;4.70;;
18072;SDS011;9161;47.348;9.648;2024-02-14T23:02:41;9.80;;;3.67;;
18072;SDS011;9161;47.348;9.648;2024-02-14T23:07:44;11.03;;;4.30;;
18072;SDS011;9161;47.348;9.648;2024-02-14T23:12:46;10.00;;;4.10;;
18072;SDS011;9161;47.348;9.648;2024-02-14T23:17:50;9.67;;;3.77;;
18072;SDS011;9161;47.348;9.648;2024-02-14T23:22:52;8.63;;;4.07;;
18072;SDS011;9161;47.348;9.648;2024-02-14T23:27:54;10.07;;;4.40;;
18072;SDS011;9161;47.348;9.648;2024-02-14T23:32:57;10.07;;;4.10;;
18072;SDS011;9161;47.348;9.648;2024-02-14T23:38:00;12.43;;;4.30;;
18072;SDS011;9161;47.348;9.648;2024-02-14T23:43:02;8.37;;;3.20;;
18072;SDS011;9161;47.348;9.648;2024-02-14T23:48:05;9.13;;;4.40;;
18072;SDS011;9161;47.348;9.648;2024-02-14T23:53:08;11.97;;;4.50;;
18072;SDS011;9161;47.348;9.648;2024-02-14T23:58:10;9.97;;;4.40;;
